Search for airport 
image banner adimage banner adimage banner ad
image banner ad

KEBS - Webster City Muni

Located in Webster City, United States

ICAO - EBS, IATA - EBS

Data provided by Airmate  

General information

Coordinates: N42°26'11" W93°52'8"
Elevation is 1122 feet MSL.
Magnetic variation is 03° East
View others Airports in Iowa

Operational data

Special qualification required
Current time UTC:
Current local time:
Weather
METAR: KEBS 150935Z AUTO 00000KT 10SM CLR 13/09 A3009 RMK AO2
View NOTAMs / SUP AIP / TFR affecting this airport [VIEW]
Communications frequencies: [VIEW]

Runways:

RWY identifierQFULength (ft)Width (ft)SurfaceLDA (ft)
0549°266390GRASS
23229°266390GRASS
14144°385175CONC
32324°385175CONC

Airport contact information

Address: Webster City United States

Other aviation service providers

Flight schools

Storm Flying Service, Inc.

Storm Flying Service, Inc.

Satellite view of KEBS